createdAt,value
2023-04-04T00:00:22.787Z,86.22
2023-04-04T00:01:22.515Z,86.32
2023-04-04T00:03:22.794Z,86.22
2023-04-04T00:04:22.725Z,86.32
2023-04-04T00:05:22.635Z,86.22
2023-04-04T00:06:22.951Z,86.42
2023-04-04T00:07:22.693Z,86.32
2023-04-04T00:08:22.735Z,86.42
2023-04-04T00:09:22.778Z,86.52
2023-04-04T00:10:22.769Z,86.42
2023-04-04T00:11:22.801Z,86.52
2023-04-04T00:12:24.806Z,86.22
2023-04-04T00:13:22.854Z,86.32
2023-04-04T00:14:22.886Z,86.22
2023-04-04T00:15:22.915Z,86.42
2023-04-04T00:16:22.995Z,86.32
2023-04-04T00:17:22.975Z,86.32
2023-04-04T00:19:23.059Z,86.13
2023-04-04T00:20:23.093Z,86.42
2023-04-04T00:21:23.087Z,86.13
2023-04-04T00:22:23.116Z,86.13
2023-04-04T00:23:23.239Z,85.94
2023-04-04T00:24:23.172Z,85.84
2023-04-04T00:25:23.499Z,85.84
2023-04-04T00:26:23.241Z,86.22
2023-04-04T00:27:23.273Z,85.84
2023-04-04T00:28:23.399Z,85.84
2023-04-04T00:29:23.328Z,86.32
2023-04-04T00:30:23.344Z,86.32
2023-04-04T00:31:23.429Z,85.84
2023-04-04T00:32:23.777Z,86.42
2023-04-04T00:33:23.474Z,85.84
2023-04-04T00:34:23.461Z,86.13
2023-04-04T00:35:23.490Z,86.32
2023-04-04T00:36:23.538Z,85.94
2023-04-04T00:37:23.545Z,85.94
2023-04-04T00:38:23.573Z,86.13
2023-04-04T00:39:23.903Z,86.22
2023-04-04T00:40:23.631Z,86.22
2023-04-04T00:41:23.665Z,86.42
2023-04-04T00:42:23.696Z,86.22
2023-04-04T00:43:23.722Z,86.38
2023-04-04T00:44:23.864Z,86.52
2023-04-04T00:45:23.823Z,86.28
2023-04-04T00:46:24.107Z,86.42
2023-04-04T00:47:23.881Z,86.32
2023-04-04T00:48:23.868Z,86.22
2023-04-04T00:49:23.887Z,86.38
2023-04-04T00:50:23.913Z,86.28
2023-04-04T00:51:23.943Z,86.28
2023-04-04T00:52:24.055Z,86.22
2023-04-04T00:53:24.306Z,86.18
2023-04-04T00:54:24.050Z,86.28
2023-04-04T00:55:24.061Z,86.42
2023-04-04T00:56:24.102Z,86.18
2023-04-04T00:57:24.122Z,86.13
2023-04-04T00:58:24.153Z,86.09
2023-04-04T00:59:24.241Z,86.28
2023-04-04T01:00:24.525Z,86.18
2023-04-04T01:01:24.270Z,86.18
2023-04-04T01:02:24.290Z,86.47
2023-04-04T01:04:24.448Z,86.09
2023-04-04T01:05:24.344Z,86.18
2023-04-04T01:06:24.390Z,86.47
2023-04-04T01:07:24.705Z,86.28
2023-04-04T01:08:24.446Z,86.47
2023-04-04T01:09:24.470Z,86.47
2023-04-04T01:10:24.783Z,86.28
2023-04-04T01:11:24.534Z,86.28
2023-04-04T01:12:24.549Z,86.18
2023-04-04T01:13:24.568Z,86.18
2023-04-04T01:14:24.895Z,86.47
2023-04-04T01:15:24.626Z,86.28
2023-04-04T01:16:24.676Z,86.47
2023-04-04T01:17:24.697Z,86.47
2023-04-04T01:18:24.707Z,86.85
2023-04-04T01:19:24.748Z,86.28
2023-04-04T01:20:24.780Z,86.28
2023-04-04T01:21:25.122Z,86.85
2023-04-04T01:22:24.927Z,86.85
2023-04-04T01:23:24.969Z,86.85
2023-04-04T01:24:24.907Z,86.76
2023-04-04T01:25:24.907Z,86.76
2023-04-04T01:26:24.942Z,86.76
2023-04-04T01:27:24.966Z,86.76
2023-04-04T01:28:25.301Z,86.85
2023-04-04T01:30:25.053Z,86.66
2023-04-04T01:31:25.147Z,86.57
2023-04-04T01:32:25.143Z,86.57
2023-04-04T01:34:25.176Z,86.57
2023-04-04T01:35:25.495Z,86.57
2023-04-04T01:36:25.277Z,86.47
2023-04-04T01:37:25.260Z,86.38
2023-04-04T01:38:25.281Z,86.38
2023-04-04T01:39:25.308Z,86.47
2023-04-04T01:40:25.360Z,86.47
2023-04-04T01:41:25.400Z,86.38
2023-04-04T01:42:25.693Z,86.28
2023-04-04T01:43:25.452Z,86.47
2023-04-04T01:44:25.463Z,86.57
2023-04-04T01:45:25.485Z,86.85
2023-04-04T01:46:25.614Z,87.24
2023-04-04T01:47:25.559Z,87.24
2023-04-04T01:48:25.602Z,87.05
2023-04-04T01:49:25.906Z,87.24
2023-04-04T01:50:25.622Z,87.15
2023-04-04T01:51:25.780Z,87.24
2023-04-04T01:52:25.682Z,86.95
2023-04-04T01:53:25.714Z,86.95
2023-04-04T01:54:25.743Z,87.05
2023-04-04T01:55:25.765Z,87.05
2023-04-04T01:56:26.241Z,87.05
2023-04-04T01:57:25.822Z,87.05
2023-04-04T01:58:25.856Z,86.95
2023-04-04T01:59:25.986Z,86.95
2023-04-04T02:00:25.908Z,87.15
2023-04-04T02:01:25.975Z,87.15
2023-04-04T02:02:26.007Z,87.05
2023-04-04T02:03:25.986Z,86.95
2023-04-04T02:04:26.165Z,86.95
2023-04-04T02:05:26.071Z,86.95
2023-04-04T02:06:26.075Z,86.95
2023-04-04T02:07:26.109Z,86.95
2023-04-04T02:08:26.441Z,86.95
2023-04-04T02:09:26.160Z,86.95
2023-04-04T02:12:26.261Z,87.19
2023-04-04T02:13:26.284Z,87.43
2023-04-04T02:14:26.617Z,87.24
2023-04-04T02:15:26.345Z,86.85
2023-04-04T02:16:26.505Z,87.39
2023-04-04T02:17:26.429Z,86.91
2023-04-04T02:18:26.409Z,87.15
2023-04-04T02:19:26.442Z,87.10
2023-04-04T02:20:26.487Z,87.62
2023-04-04T02:21:26.800Z,87.39
2023-04-04T02:22:26.522Z,87.29
2023-04-04T02:23:26.566Z,87.62
2023-04-04T02:24:26.583Z,87.43
2023-04-04T02:25:26.610Z,87.24
2023-04-04T02:26:26.648Z,87.34
2023-04-04T02:27:26.700Z,87.34
2023-04-04T02:28:27.012Z,87.39
2023-04-04T02:29:26.725Z,87.29
2023-04-04T02:30:26.747Z,87.29
2023-04-04T02:31:26.802Z,87.19
2023-04-04T02:32:26.843Z,87.49
2023-04-04T02:33:26.836Z,87.29
2023-04-04T02:34:26.862Z,87.39
2023-04-04T02:35:27.197Z,87.39
2023-04-04T02:36:26.922Z,87.49
2023-04-04T02:37:26.947Z,87.29
2023-04-04T02:38:26.986Z,87.39
2023-04-04T02:39:27.034Z,87.19
2023-04-04T02:40:27.032Z,87.39
2023-04-04T02:41:27.060Z,87.49
2023-04-04T02:42:27.391Z,87.39
2023-04-04T02:43:27.119Z,87.49
2023-04-04T02:45:27.190Z,88.06
2023-04-04T02:47:27.336Z,87.96
2023-04-04T02:48:27.271Z,87.96
2023-04-04T02:49:27.586Z,88.06
2023-04-04T02:50:27.322Z,87.96
2023-04-04T02:52:27.378Z,88.16
2023-04-04T02:53:27.412Z,88.06
2023-04-04T02:54:27.436Z,87.77
2023-04-04T02:55:27.468Z,87.77
2023-04-04T02:56:27.786Z,87.96
2023-04-04T02:57:27.524Z,87.77
2023-04-04T02:58:27.542Z,87.77
2023-04-04T02:59:27.699Z,87.87
2023-04-04T03:00:27.605Z,87.96
2023-04-04T03:01:27.684Z,87.96
2023-04-04T03:02:27.779Z,87.77
2023-04-04T03:03:28.237Z,87.68
2023-04-04T03:04:27.724Z,87.87
2023-04-04T03:05:27.745Z,87.96
2023-04-04T03:06:27.773Z,87.77
2023-04-04T03:07:27.802Z,87.68
2023-04-04T03:08:27.827Z,87.58
2023-04-04T03:09:27.860Z,87.77
2023-04-04T03:10:27.884Z,87.68
2023-04-04T03:11:27.913Z,87.87
2023-04-04T03:12:27.944Z,87.87
2023-04-04T03:13:27.972Z,87.68
2023-04-04T03:14:27.998Z,87.77
2023-04-04T03:15:28.025Z,87.77
2023-04-04T03:16:28.383Z,87.77
2023-04-04T03:17:28.136Z,87.77
2023-04-04T03:18:28.107Z,87.68
2023-04-04T03:19:28.148Z,87.77
2023-04-04T03:20:28.165Z,87.49
2023-04-04T03:21:28.292Z,87.68
2023-04-04T03:22:28.538Z,87.96
2023-04-04T03:23:28.260Z,87.87
2023-04-04T03:24:28.284Z,87.58
2023-04-04T03:25:28.407Z,87.49
2023-04-04T03:26:28.378Z,87.49
2023-04-04T03:27:28.357Z,88.16
2023-04-04T03:28:28.795Z,88.06
2023-04-04T03:29:28.415Z,87.82
2023-04-04T03:30:28.457Z,88.06
2023-04-04T03:31:28.819Z,88.16
2023-04-04T03:32:28.632Z,88.06
2023-04-04T03:33:28.562Z,88.25
2023-04-04T03:34:28.864Z,88.16
2023-04-04T03:35:28.656Z,87.77
2023-04-04T03:36:28.622Z,88.25
2023-04-04T03:37:28.652Z,87.87
2023-04-04T03:38:28.678Z,87.77
2023-04-04T03:39:28.693Z,87.87
2023-04-04T03:40:28.725Z,88.06
2023-04-04T03:41:29.048Z,87.96
2023-04-04T03:42:28.776Z,88.02
2023-04-04T03:43:28.809Z,87.68
2023-04-04T03:45:28.875Z,88.11
2023-04-04T03:46:28.986Z,88.16
2023-04-04T03:48:29.257Z,87.96
2023-04-04T03:49:28.996Z,88.25
2023-04-04T03:50:29.005Z,87.96
2023-04-04T03:51:29.037Z,87.87
2023-04-04T03:52:29.070Z,88.16
2023-04-04T03:53:29.093Z,88.16
2023-04-04T03:54:29.117Z,87.96
2023-04-04T03:55:29.444Z,88.11
2023-04-04T03:56:29.173Z,88.02
2023-04-04T03:57:29.199Z,88.11
2023-04-04T03:58:29.235Z,88.25
2023-04-04T03:59:29.285Z,88.11
2023-04-04T04:00:29.277Z,88.16
2023-04-04T04:01:29.332Z,88.16
2023-04-04T04:02:29.693Z,87.82
2023-04-04T04:03:29.467Z,87.82
2023-04-04T04:04:29.420Z,87.82
2023-04-04T04:05:29.446Z,88.02
2023-04-04T04:06:29.549Z,88.11
2023-04-04T04:07:29.474Z,87.82
2023-04-04T04:08:29.502Z,87.92
2023-04-04T04:09:29.853Z,88.02
2023-04-04T04:10:29.583Z,88.02
2023-04-04T04:12:29.615Z,88.11
2023-04-04T04:13:29.651Z,88.21
2023-04-04T04:14:29.679Z,87.92
2023-04-04T04:15:29.697Z,87.82
2023-04-04T04:16:29.821Z,87.92
2023-04-04T04:17:29.773Z,87.82
2023-04-04T04:18:29.782Z,87.82
2023-04-04T04:19:29.807Z,88.02
2023-04-04T04:20:29.871Z,88.59
2023-04-04T04:21:29.885Z,87.92
2023-04-04T04:23:29.936Z,88.49
2023-04-04T04:24:29.950Z,88.40
2023-04-04T04:25:29.979Z,88.40
2023-04-04T04:26:30.015Z,88.59
2023-04-04T04:27:30.040Z,88.59
2023-04-04T04:28:34.050Z,88.59
2023-04-04T04:30:30.122Z,88.59
2023-04-04T04:31:30.206Z,87.82
2023-04-04T04:32:30.205Z,87.92
2023-04-04T04:33:30.208Z,87.63
2023-04-04T04:34:30.532Z,87.73
2023-04-04T04:35:30.265Z,87.63
2023-04-04T04:36:30.650Z,87.92
2023-04-04T04:37:30.394Z,87.82
2023-04-04T04:38:31.061Z,87.35
2023-04-04T04:39:30.383Z,87.44
2023-04-04T04:40:30.407Z,87.54
2023-04-04T04:41:30.437Z,87.44
2023-04-04T04:42:30.475Z,87.44
2023-04-04T04:43:30.782Z,87.82
2023-04-04T04:44:30.641Z,87.92
2023-04-04T04:45:30.599Z,87.63
2023-04-04T04:46:30.629Z,87.82
2023-04-04T04:47:30.622Z,87.63
2023-04-04T04:48:30.628Z,87.73
2023-04-04T04:49:30.951Z,87.44
2023-04-04T04:50:30.679Z,87.44
2023-04-04T04:52:30.735Z,87.73
2023-04-04T04:53:30.786Z,87.92
2023-04-04T04:54:30.792Z,88.21
2023-04-04T04:55:31.643Z,87.73
2023-04-04T04:56:30.849Z,87.54
2023-04-04T04:57:30.892Z,87.54
2023-04-04T04:58:30.933Z,87.44
2023-04-04T04:59:31.083Z,87.44
2023-04-04T05:00:30.961Z,88.21
2023-04-04T05:01:31.102Z,87.63
2023-04-04T05:02:31.053Z,87.73
2023-04-04T05:03:31.058Z,87.92
2023-04-04T05:04:31.086Z,88.21
2023-04-04T05:05:31.095Z,87.82
2023-04-04T05:06:31.126Z,87.82
2023-04-04T05:07:31.460Z,88.11
2023-04-04T05:08:31.185Z,88.11
2023-04-04T05:09:31.329Z,88.11
2023-04-04T05:10:31.228Z,88.11
2023-04-04T05:11:31.273Z,87.92
2023-04-04T05:12:31.290Z,88.11
2023-04-04T05:13:31.337Z,87.82
2023-04-04T05:15:31.694Z,88.02
2023-04-04T05:16:31.477Z,87.92
2023-04-04T05:17:31.448Z,87.82
2023-04-04T05:19:31.596Z,88.02
2023-04-04T05:20:31.506Z,88.59
2023-04-04T05:21:31.561Z,88.11
2023-04-04T05:22:31.875Z,88.59
2023-04-04T05:23:31.625Z,88.59
2023-04-04T05:24:31.630Z,88.59
2023-04-04T05:25:31.681Z,88.31
2023-04-04T05:26:31.678Z,88.40
2023-04-04T05:27:31.817Z,88.49
2023-04-04T05:28:31.735Z,88.40
2023-04-04T05:29:32.179Z,88.31
2023-04-04T05:30:31.786Z,88.40
2023-04-04T05:31:31.830Z,88.31
2023-04-04T05:32:31.877Z,88.49
2023-04-04T05:34:31.931Z,88.59
2023-04-04T05:35:31.946Z,88.49
2023-04-04T05:36:32.279Z,88.21
2023-04-04T05:37:33.635Z,88.21
2023-04-04T05:38:32.014Z,88.40
2023-04-04T05:39:32.047Z,88.59
2023-04-04T05:40:32.076Z,88.59
2023-04-04T05:42:32.450Z,88.11
2023-04-04T05:43:32.202Z,87.92
2023-04-04T05:44:32.190Z,88.11
2023-04-04T05:45:32.205Z,87.54
2023-04-04T05:46:32.268Z,87.82
2023-04-04T05:47:32.295Z,88.02
2023-04-04T05:49:32.618Z,87.35
2023-04-04T05:50:32.352Z,87.73
2023-04-04T05:51:32.379Z,87.63
2023-04-04T05:52:32.400Z,87.73
2023-04-04T05:53:32.428Z,87.63
2023-04-04T05:54:32.471Z,87.92
2023-04-04T05:55:32.488Z,87.92
2023-04-04T05:56:32.511Z,88.11
2023-04-04T05:57:32.544Z,88.21
2023-04-04T05:59:32.646Z,88.49
2023-04-04T06:00:32.640Z,88.11
2023-04-04T06:01:32.663Z,87.73
2023-04-04T06:02:33.016Z,87.92
2023-04-04T06:03:32.902Z,88.11
2023-04-04T06:04:32.753Z,87.44
2023-04-04T06:05:32.786Z,87.54
2023-04-04T06:06:32.785Z,87.82
2023-04-04T06:07:32.818Z,87.25
2023-04-04T06:08:40.071Z,87.35
2023-04-04T06:09:32.872Z,87.15
2023-04-04T06:10:32.906Z,87.15
2023-04-04T06:11:32.927Z,87.54
2023-04-04T06:13:32.990Z,87.44
2023-04-04T06:14:33.314Z,87.25
2023-04-04T06:15:33.064Z,86.87
2023-04-04T06:16:33.142Z,86.96
2023-04-04T06:17:33.115Z,86.87
2023-04-04T06:18:33.133Z,86.96
2023-04-04T06:20:33.476Z,86.96
2023-04-04T06:21:33.206Z,87.05
2023-04-04T06:22:33.240Z,86.87
2023-04-04T06:23:33.264Z,86.87
2023-04-04T06:24:34.486Z,87.15
2023-04-04T06:25:33.323Z,86.58
2023-04-04T06:26:33.343Z,86.68
2023-04-04T06:27:33.378Z,86.87
2023-04-04T06:29:33.424Z,87.25
2023-04-04T06:30:33.456Z,86.68
2023-04-04T06:31:33.532Z,86.38
2023-04-04T06:32:33.533Z,86.48
2023-04-04T06:33:33.840Z,86.38
2023-04-04T06:34:33.568Z,86.48
2023-04-04T06:35:33.597Z,86.38
2023-04-04T06:36:33.674Z,86.38
2023-04-04T06:37:33.650Z,86.87
2023-04-04T06:38:33.690Z,86.77
2023-04-04T06:39:33.706Z,86.48
2023-04-04T06:40:33.761Z,86.38
2023-04-04T06:41:33.760Z,86.19
2023-04-04T06:44:33.844Z,86.19
2023-04-04T06:46:34.318Z,86.19
2023-04-04T06:47:33.964Z,86.10
2023-04-04T06:48:33.957Z,86.05
2023-04-04T06:49:33.985Z,86.00
2023-04-04T06:50:34.011Z,86.29
2023-04-04T06:52:34.381Z,85.81
2023-04-04T06:54:34.116Z,85.81
2023-04-04T06:55:34.145Z,85.85
2023-04-04T06:56:34.170Z,85.42
2023-04-04T06:57:34.199Z,85.47
2023-04-04T06:58:34.541Z,85.57
2023-04-04T06:59:34.311Z,85.85
2023-04-04T07:00:34.289Z,85.75
2023-04-04T07:02:34.394Z,86.14
2023-04-04T07:03:34.401Z,85.95
2023-04-04T07:04:34.400Z,86.05
2023-04-04T07:05:34.428Z,86.05
2023-04-04T07:06:34.456Z,85.57
2023-04-04T07:07:34.503Z,85.75
2023-04-04T07:08:36.272Z,85.57
2023-04-04T07:09:34.664Z,85.18
2023-04-04T07:10:34.866Z,85.08
2023-04-04T07:12:34.653Z,85.08
2023-04-04T07:13:34.649Z,85.08
2023-04-04T07:14:34.698Z,85.08
2023-04-04T07:15:34.713Z,85.28
2023-04-04T07:16:34.770Z,84.99
2023-04-04T07:17:34.778Z,84.99
2023-04-04T07:18:34.790Z,85.47
2023-04-04T07:19:34.845Z,85.37
2023-04-04T07:20:34.862Z,85.28
2023-04-04T07:21:34.879Z,85.18
2023-04-04T07:22:34.893Z,85.08
2023-04-04T07:23:35.282Z,84.70
2023-04-04T07:24:34.960Z,84.99
2023-04-04T07:25:35.507Z,84.99
2023-04-04T07:26:35.018Z,84.89
2023-04-04T07:27:35.039Z,85.75
2023-04-04T07:28:35.066Z,85.66
2023-04-04T07:30:35.419Z,85.66
2023-04-04T07:31:35.284Z,85.08
2023-04-04T07:32:35.199Z,85.08
2023-04-04T07:33:35.214Z,84.89
2023-04-04T07:34:35.233Z,85.37
2023-04-04T07:35:35.307Z,85.18
2023-04-04T07:36:35.293Z,85.08
2023-04-04T07:37:35.620Z,85.28
2023-04-04T07:38:35.343Z,84.99
2023-04-04T07:39:35.522Z,84.51
2023-04-04T07:41:35.418Z,84.80
2023-04-04T07:42:35.462Z,84.70
2023-04-04T07:43:35.882Z,84.70
2023-04-04T07:45:35.533Z,84.99
2023-04-04T07:46:35.660Z,84.89
2023-04-04T07:48:35.621Z,84.80
2023-04-04T07:49:35.656Z,84.60
2023-04-04T07:50:35.983Z,84.80
2023-04-04T07:51:35.715Z,84.99
2023-04-04T07:52:35.820Z,84.70
2023-04-04T07:53:35.761Z,84.89
2023-04-04T07:54:35.789Z,84.70
2023-04-04T07:55:35.817Z,84.99
2023-04-04T07:56:36.140Z,84.70
2023-04-04T07:57:35.872Z,84.80
2023-04-04T07:58:35.893Z,84.89
2023-04-04T07:59:35.929Z,84.89
2023-04-04T08:02:36.095Z,84.22
2023-04-04T08:03:36.154Z,84.41
2023-04-04T08:04:36.124Z,84.12
2023-04-04T08:06:36.121Z,84.12
2023-04-04T08:08:36.506Z,84.41
2023-04-04T08:09:36.209Z,84.22
2023-04-04T08:10:36.239Z,84.51
2023-04-04T08:11:36.261Z,84.03
2023-04-04T08:12:36.289Z,84.22
2023-04-04T08:13:36.314Z,83.84
2023-04-04T08:14:36.349Z,83.87
2023-04-04T08:15:36.390Z,83.93
2023-04-04T08:16:36.402Z,84.22
2023-04-04T08:17:36.462Z,84.22
2023-04-04T08:18:36.458Z,84.22
2023-04-04T08:19:36.508Z,84.22
2023-04-04T08:20:36.549Z,84.55
2023-04-04T08:21:36.839Z,84.31
2023-04-04T08:22:36.562Z,84.07
2023-04-04T08:23:36.616Z,83.87
2023-04-04T08:25:36.683Z,83.69
2023-04-04T08:26:36.681Z,83.69
2023-04-04T08:27:36.706Z,83.93
2023-04-04T08:28:36.777Z,83.78
2023-04-04T08:29:36.759Z,83.97
2023-04-04T08:30:36.809Z,83.84
2023-04-04T08:31:36.867Z,83.97
2023-04-04T08:32:36.877Z,84.07
2023-04-04T08:33:47.381Z,83.40
2023-04-04T08:34:36.908Z,83.36
2023-04-04T08:35:36.960Z,83.78
2023-04-04T08:36:36.960Z,83.78
2023-04-04T08:37:36.994Z,83.69
2023-04-04T08:38:37.014Z,83.59
2023-04-04T08:40:37.643Z,83.59
2023-04-04T08:41:37.257Z,83.30
2023-04-04T08:42:37.131Z,83.30
2023-04-04T08:43:37.156Z,83.40
2023-04-04T08:44:37.213Z,83.30
2023-04-04T08:45:37.211Z,83.30
2023-04-04T08:46:37.566Z,83.49
2023-04-04T08:47:37.293Z,83.20
2023-04-04T08:48:37.326Z,83.59
2023-04-04T08:49:37.346Z,83.49
2023-04-04T08:50:37.503Z,83.40
2023-04-04T08:51:37.391Z,83.49
2023-04-04T08:52:37.431Z,83.49
2023-04-04T08:53:37.753Z,83.40
2023-04-04T08:54:37.536Z,83.11
2023-04-04T08:55:37.525Z,83.20
2023-04-04T08:56:37.559Z,83.01
2023-04-04T08:57:37.580Z,83.20
2023-04-04T08:58:37.586Z,83.20
2023-04-04T08:59:37.676Z,82.82
2023-04-04T09:00:38.241Z,83.30
2023-04-04T09:01:37.692Z,83.20
2023-04-04T09:02:37.788Z,82.73
2023-04-04T09:03:37.751Z,82.73
2023-04-04T09:04:37.764Z,82.73
2023-04-04T09:05:37.792Z,82.82
2023-04-04T09:06:37.814Z,82.92
2023-04-04T09:07:39.437Z,82.92
2023-04-04T09:08:37.878Z,82.92
2023-04-04T09:09:37.904Z,82.73
2023-04-04T09:10:38.249Z,82.82
2023-04-04T09:11:37.961Z,82.92
2023-04-04T09:12:37.993Z,82.92
2023-04-04T09:13:40.061Z,83.11
2023-04-04T09:14:38.046Z,82.92
2023-04-04T09:16:38.159Z,83.01
2023-04-04T09:17:38.185Z,83.01
2023-04-04T09:18:38.163Z,83.01
2023-04-04T09:19:38.188Z,82.82
2023-04-04T09:20:38.843Z,83.01
2023-04-04T09:21:38.245Z,83.01
2023-04-04T09:22:38.270Z,82.73
2023-04-04T09:25:38.402Z,83.01
2023-04-04T09:26:38.584Z,82.82
2023-04-04T09:27:38.429Z,82.73
2023-04-04T09:28:38.441Z,82.82
2023-04-04T09:29:38.486Z,82.92
2023-04-04T09:30:38.873Z,82.73
2023-04-04T09:32:38.661Z,82.82
2023-04-04T09:33:38.677Z,82.82
2023-04-04T09:34:38.607Z,82.24
2023-04-04T09:35:38.677Z,82.43
2023-04-04T09:36:38.667Z,82.53
2023-04-04T09:37:38.687Z,82.43
2023-04-04T09:38:38.722Z,82.34
2023-04-04T09:39:39.066Z,82.43
2023-04-04T09:40:39.520Z,82.34
2023-04-04T09:41:38.801Z,82.34
2023-04-04T09:43:38.867Z,82.43
2023-04-04T09:44:38.888Z,82.73
2023-04-04T09:45:38.953Z,82.24
2023-04-04T09:46:39.335Z,82.43
2023-04-04T09:48:39.018Z,82.43
2023-04-04T09:49:39.031Z,82.43
2023-04-04T09:50:39.240Z,82.43
2023-04-04T09:51:39.091Z,82.63
2023-04-04T09:53:39.452Z,82.43
2023-04-04T09:54:47.953Z,82.53
2023-04-04T09:55:39.314Z,82.43
2023-04-04T09:56:39.242Z,82.63
2023-04-04T09:58:46.267Z,82.63
2023-04-04T09:59:39.344Z,82.63
2023-04-04T10:00:39.814Z,82.05
2023-04-04T10:01:39.520Z,81.96
2023-04-04T10:03:39.473Z,82.05
2023-04-04T10:04:39.471Z,82.05
2023-04-04T10:05:39.546Z,82.05
2023-04-04T10:06:39.818Z,81.67
2023-04-04T10:07:39.546Z,82.19
2023-04-04T10:08:39.596Z,81.99
2023-04-04T10:09:39.606Z,82.19
2023-04-04T10:10:39.796Z,81.96
2023-04-04T10:11:39.662Z,82.09
2023-04-04T10:12:39.683Z,81.96
2023-04-04T10:13:39.722Z,81.90
2023-04-04T10:14:39.749Z,81.86
2023-04-04T10:15:39.793Z,82.09
2023-04-04T10:16:39.811Z,81.99
2023-04-04T10:17:39.870Z,81.99
2023-04-04T10:18:40.166Z,81.90
2023-04-04T10:19:39.901Z,81.76
2023-04-04T10:20:40.084Z,81.96
2023-04-04T10:21:39.949Z,81.86
2023-04-04T10:22:39.974Z,82.15
2023-04-04T10:23:40.041Z,81.99
2023-04-04T10:24:40.060Z,82.15
2023-04-04T10:25:40.057Z,82.15
2023-04-04T10:26:40.087Z,82.15
2023-04-04T10:27:40.124Z,82.05
2023-04-04T10:28:40.208Z,82.05
2023-04-04T10:29:40.181Z,82.24
2023-04-04T10:30:40.779Z,82.19
2023-04-04T10:31:40.563Z,82.29
2023-04-04T10:32:40.299Z,82.05
2023-04-04T10:33:40.312Z,82.09
2023-04-04T10:35:40.435Z,82.34
2023-04-04T10:36:40.373Z,82.15
2023-04-04T10:37:40.699Z,82.15
2023-04-04T10:38:40.432Z,82.09
2023-04-04T10:39:40.460Z,81.96
2023-04-04T10:40:40.648Z,81.96
2023-04-04T10:41:40.522Z,82.05
2023-04-04T10:43:40.580Z,81.99
2023-04-04T10:44:40.709Z,82.34
2023-04-04T10:45:40.824Z,82.34
2023-04-04T10:46:40.706Z,82.05
2023-04-04T10:47:40.739Z,81.86
2023-04-04T10:48:40.716Z,81.99
2023-04-04T10:49:41.079Z,82.19
2023-04-04T10:50:40.806Z,81.99
2023-04-04T10:51:52.983Z,82.19
2023-04-04T10:52:40.833Z,81.86
2023-04-04T10:53:40.864Z,82.09
2023-04-04T10:54:40.886Z,81.90
2023-04-04T10:55:41.259Z,82.09
2023-04-04T10:56:41.278Z,81.99
2023-04-04T10:58:41.002Z,81.81
2023-04-04T10:59:41.030Z,81.90
2023-04-04T11:00:41.111Z,81.81
2023-04-04T11:01:41.095Z,82.19
2023-04-04T11:02:41.226Z,81.90
2023-04-04T11:03:41.474Z,82.29
2023-04-04T11:04:41.231Z,82.05
2023-04-04T11:05:41.642Z,81.61
2023-04-04T11:07:41.278Z,82.09
2023-04-04T11:09:41.333Z,81.90
2023-04-04T11:10:41.656Z,82.19
2023-04-04T11:11:41.383Z,81.61
2023-04-04T11:12:41.401Z,81.90
2023-04-04T11:13:41.446Z,81.71
2023-04-04T11:14:41.467Z,81.90
2023-04-04T11:15:41.717Z,81.81
2023-04-04T11:16:41.540Z,82.09
2023-04-04T11:17:41.549Z,81.90
2023-04-04T11:18:41.644Z,82.09
2023-04-04T11:19:41.614Z,82.09
2023-04-04T11:21:41.693Z,81.90
2023-04-04T11:22:41.693Z,81.71
2023-04-04T11:23:41.742Z,81.42
2023-04-04T11:24:41.746Z,81.61
2023-04-04T11:25:42.035Z,81.52
2023-04-04T11:26:41.904Z,81.42
2023-04-04T11:27:41.857Z,81.99
2023-04-04T11:28:41.881Z,81.90
2023-04-04T11:29:42.248Z,81.99
2023-04-04T11:30:41.927Z,82.09
2023-04-04T11:31:42.017Z,81.61
2023-04-04T11:32:43.183Z,82.09
2023-04-04T11:33:42.014Z,81.90
2023-04-04T11:34:42.048Z,81.90
2023-04-04T11:35:42.657Z,81.61
2023-04-04T11:36:42.113Z,82.09
2023-04-04T11:37:42.149Z,82.09
2023-04-04T11:38:42.190Z,82.09
2023-04-04T11:39:42.183Z,82.09
2023-04-04T11:40:42.220Z,81.90
2023-04-04T11:41:42.240Z,81.52
2023-04-04T11:42:42.287Z,82.09
2023-04-04T11:43:42.332Z,81.81
2023-04-04T11:44:42.324Z,81.81
2023-04-04T11:45:42.609Z,82.09
2023-04-04T11:46:42.387Z,81.81
2023-04-04T11:47:42.754Z,81.99
2023-04-04T11:48:42.436Z,81.42
2023-04-04T11:49:42.465Z,81.61
2023-04-04T11:50:42.514Z,81.52
2023-04-04T11:51:42.520Z,81.61
2023-04-04T11:52:42.568Z,81.52
2023-04-04T11:53:42.596Z,81.61
2023-04-04T11:54:42.916Z,81.52
2023-04-04T11:55:42.665Z,81.71
2023-04-04T11:56:42.668Z,81.81
2023-04-04T11:57:42.702Z,81.71
2023-04-04T11:58:42.734Z,81.71
2023-04-04T11:59:42.770Z,81.71
2023-04-04T12:00:42.784Z,81.71
2023-04-04T12:01:42.830Z,81.61
2023-04-04T12:02:42.885Z,81.71
2023-04-04T12:03:42.976Z,81.42
2023-04-04T12:04:43.971Z,81.42
2023-04-04T12:05:43.345Z,81.23
2023-04-04T12:07:43.320Z,81.52
2023-04-04T12:08:43.041Z,81.61
2023-04-04T12:09:43.067Z,81.42
2023-04-04T12:10:43.088Z,81.61
2023-04-04T12:11:43.103Z,81.42
2023-04-04T12:12:43.175Z,81.71
2023-04-04T12:13:43.157Z,81.42
2023-04-04T12:14:43.193Z,81.42
2023-04-04T12:15:43.562Z,81.13
2023-04-04T12:16:43.247Z,81.81
2023-04-04T12:17:43.281Z,81.90
2023-04-04T12:18:43.301Z,81.13
2023-04-04T12:20:43.684Z,81.13
2023-04-04T12:21:43.451Z,81.32
2023-04-04T12:22:43.453Z,81.32
2023-04-04T12:23:43.471Z,81.13
2023-04-04T12:24:43.584Z,81.23
2023-04-04T12:25:43.562Z,81.23
2023-04-04T12:26:43.552Z,81.42
2023-04-04T12:27:43.866Z,81.13
2023-04-04T12:28:43.624Z,81.42
2023-04-04T12:30:43.663Z,81.42
2023-04-04T12:31:43.695Z,81.61
2023-04-04T12:32:43.740Z,82.19
2023-04-04T12:33:44.039Z,81.52
2023-04-04T12:34:47.040Z,81.81
2023-04-04T12:35:43.971Z,81.71
2023-04-04T12:36:43.839Z,81.42
2023-04-04T12:37:43.859Z,81.71
2023-04-04T12:38:43.876Z,81.42
2023-04-04T12:39:44.226Z,81.61
2023-04-04T12:40:43.941Z,81.52
2023-04-04T12:41:43.987Z,81.13
2023-04-04T12:42:44.001Z,81.13
2023-04-04T12:43:44.040Z,81.52
2023-04-04T12:44:44.073Z,80.94
2023-04-04T12:45:44.429Z,81.81
2023-04-04T12:46:45.288Z,81.81
2023-04-04T12:47:44.216Z,81.04
2023-04-04T12:48:44.170Z,81.71
2023-04-04T12:49:44.219Z,81.52
2023-04-04T12:50:44.241Z,81.52
2023-04-04T12:51:44.278Z,81.61
2023-04-04T12:52:45.640Z,81.52
2023-04-04T12:53:44.333Z,81.71
2023-04-04T12:54:44.531Z,81.42
2023-04-04T12:55:44.378Z,81.32
2023-04-04T12:56:44.399Z,81.13
2023-04-04T12:57:44.473Z,80.98
2023-04-04T12:59:44.487Z,81.07
2023-04-04T13:00:44.578Z,81.13
2023-04-04T13:01:44.563Z,81.17
2023-04-04T13:02:44.648Z,80.88
2023-04-04T13:03:44.611Z,80.88
2023-04-04T13:04:44.637Z,81.07
2023-04-04T13:05:45.090Z,80.98
2023-04-04T13:06:44.691Z,81.07
2023-04-04T13:07:44.806Z,80.88
2023-04-04T13:08:44.746Z,80.79
2023-04-04T13:09:44.782Z,80.79
2023-04-04T13:10:44.814Z,80.50
2023-04-04T13:11:44.829Z,80.88
2023-04-04T13:14:44.936Z,80.30
2023-04-04T13:15:44.961Z,79.82
2023-04-04T13:16:45.018Z,79.63
2023-04-04T13:17:45.061Z,80.02
2023-04-04T13:18:45.040Z,79.82
2023-04-04T13:19:45.067Z,79.82
2023-04-04T13:21:45.441Z,80.02
2023-04-04T13:22:45.205Z,79.58
2023-04-04T13:23:45.182Z,79.15
2023-04-04T13:24:45.263Z,79.53
2023-04-04T13:25:45.291Z,78.96
2023-04-04T13:26:45.740Z,79.48
2023-04-04T13:27:45.317Z,79.53
2023-04-04T13:28:45.648Z,79.53
2023-04-04T13:29:45.384Z,79.25
2023-04-04T13:30:45.436Z,79.53
2023-04-04T13:31:45.417Z,79.38
2023-04-04T13:32:45.487Z,79.28
2023-04-04T13:33:45.483Z,79.38
2023-04-04T13:34:45.519Z,79.28
2023-04-04T13:35:45.846Z,79.19
2023-04-04T13:36:45.608Z,78.90
2023-04-04T13:37:45.631Z,78.81
2023-04-04T13:38:46.156Z,79.28
2023-04-04T13:39:45.654Z,79.10
2023-04-04T13:40:45.768Z,78.81
2023-04-04T13:41:45.772Z,79.10
2023-04-04T13:42:46.237Z,78.90
2023-04-04T13:43:45.814Z,78.81
2023-04-04T13:44:45.855Z,75.73
2023-04-04T13:45:46.009Z,72.74
2023-04-04T13:46:45.963Z,73.32
2023-04-04T13:47:46.013Z,76.11
2023-04-04T13:48:46.365Z,77.36
2023-04-04T13:49:46.377Z,77.65
2023-04-04T13:50:46.129Z,78.23
2023-04-04T13:51:46.320Z,78.42
2023-04-04T13:52:46.074Z,78.13
2023-04-04T13:53:46.106Z,77.94
2023-04-04T13:54:46.115Z,78.03
2023-04-04T13:56:01.292Z,78.23
2023-04-04T13:56:46.663Z,78.42